createdAt,value
2022-10-22T00:01:01.905Z,13.20
2022-10-22T00:03:29.881Z,13.20
2022-10-22T00:05:57.841Z,13.10
2022-10-22T00:08:25.902Z,13.10
2022-10-22T00:10:53.847Z,13.10
2022-10-22T00:13:22.179Z,13.20
2022-10-22T00:15:51.492Z,13.20
2022-10-22T00:18:19.439Z,13.30
2022-10-22T00:20:47.434Z,13.30
2022-10-22T00:23:15.379Z,13.30
2022-10-22T00:25:43.343Z,13.20
2022-10-22T00:28:12.446Z,13.20
2022-10-22T00:30:40.382Z,13.30
2022-10-22T00:33:09.701Z,13.30
2022-10-22T00:35:37.654Z,13.30
2022-10-22T00:38:05.635Z,13.30
2022-10-22T00:40:33.607Z,13.30
2022-10-22T00:43:01.583Z,13.30
2022-10-22T00:45:29.903Z,13.40
2022-10-22T00:48:02.787Z,13.50
2022-10-22T00:50:35.095Z,13.50
2022-10-22T00:53:05.278Z,13.60
2022-10-22T00:55:34.690Z,13.50
2022-10-22T00:58:03.245Z,13.60
2022-10-22T01:00:31.781Z,13.60
2022-10-22T01:03:00.247Z,13.60
2022-10-22T01:05:30.199Z,13.60
2022-10-22T01:07:59.672Z,13.50
2022-10-22T01:10:55.492Z,13.50
2022-10-22T01:13:32.831Z,13.50
2022-10-22T01:16:07.639Z,13.50
2022-10-22T01:18:40.376Z,13.50
2022-10-22T01:21:18.359Z,13.50
2022-10-22T01:24:21.066Z,13.50
2022-10-22T01:27:04.169Z,13.50
2022-10-22T01:29:38.358Z,13.40
2022-10-22T01:32:10.723Z,13.40
2022-10-22T01:34:41.388Z,13.40
2022-10-22T01:37:13.174Z,13.40
2022-10-22T01:39:43.282Z,13.40
2022-10-22T01:42:13.411Z,13.40
2022-10-22T01:44:42.906Z,13.30
2022-10-22T01:47:18.669Z,13.40
2022-10-22T01:50:02.667Z,13.40
2022-10-22T01:52:42.055Z,13.30
2022-10-22T01:55:20.495Z,13.30
2022-10-22T01:57:58.623Z,13.20
2022-10-22T02:00:28.089Z,13.20
2022-10-22T02:03:03.255Z,13.20
2022-10-22T02:05:37.358Z,13.20
2022-10-22T02:08:10.314Z,13.10
2022-10-22T02:10:40.087Z,13.00
2022-10-22T02:13:12.680Z,13.00
2022-10-22T02:15:45.820Z,12.90
2022-10-22T02:18:15.297Z,12.80
2022-10-22T02:20:43.862Z,12.80
2022-10-22T02:23:12.827Z,12.90
2022-10-22T02:25:43.395Z,12.70
2022-10-22T02:28:17.762Z,12.70
2022-10-22T02:30:51.853Z,12.70
2022-10-22T02:33:23.839Z,12.50
2022-10-22T02:35:54.210Z,12.40
2022-10-22T02:38:24.286Z,12.40
2022-10-22T02:40:52.488Z,12.40
2022-10-22T02:43:21.113Z,12.40
2022-10-22T02:45:50.434Z,12.40
2022-10-22T02:48:18.715Z,12.40
2022-10-22T02:50:46.665Z,12.50
2022-10-22T02:53:14.631Z,12.50
2022-10-22T02:55:42.576Z,12.50
2022-10-22T02:58:11.003Z,12.50
2022-10-22T03:00:38.964Z,12.40
2022-10-22T03:03:08.283Z,12.40
2022-10-22T03:05:36.269Z,12.40
2022-10-22T03:08:04.358Z,12.40
2022-10-22T03:10:32.333Z,12.40
2022-10-22T03:13:00.348Z,12.40
2022-10-22T03:18:01.230Z,12.40
2022-10-22T03:20:30.681Z,12.40
2022-10-22T03:22:59.086Z,12.40
2022-10-22T03:25:28.604Z,12.40
2022-10-22T03:28:01.905Z,12.60
2022-10-22T03:30:30.120Z,12.70
2022-10-22T03:32:58.554Z,12.80
2022-10-22T03:35:26.943Z,12.90
2022-10-22T03:37:56.693Z,12.90
2022-10-22T03:40:24.843Z,12.90
2022-10-22T03:42:53.474Z,13.00
2022-10-22T03:45:21.570Z,13.00
2022-10-22T03:47:49.662Z,13.00
2022-10-22T03:50:18.200Z,13.00
2022-10-22T03:52:46.354Z,12.90
2022-10-22T03:55:15.794Z,12.90
2022-10-22T03:57:43.777Z,12.90
2022-10-22T04:00:12.308Z,12.90
2022-10-22T04:02:40.302Z,12.90
2022-10-22T04:05:09.123Z,12.90
2022-10-22T04:07:37.532Z,13.00
2022-10-22T04:10:06.678Z,12.90
2022-10-22T04:12:35.977Z,12.80
2022-10-22T04:15:03.989Z,12.80
2022-10-22T04:17:35.388Z,12.80
2022-10-22T04:20:05.166Z,12.70
2022-10-22T04:22:35.063Z,12.70
2022-10-22T04:25:03.122Z,12.70
2022-10-22T04:27:31.989Z,12.70
2022-10-22T04:30:01.293Z,12.70
2022-10-22T04:32:29.505Z,12.70
2022-10-22T04:34:57.468Z,12.60
2022-10-22T04:37:25.447Z,12.60
2022-10-22T04:39:53.463Z,12.40
2022-10-22T04:42:21.449Z,12.40
2022-10-22T04:44:49.381Z,12.30
2022-10-22T04:47:18.688Z,12.20
2022-10-22T04:49:46.659Z,12.20
2022-10-22T04:52:14.586Z,12.20
2022-10-22T04:54:42.596Z,12.10
2022-10-22T04:57:10.571Z,12.10
2022-10-22T04:59:38.682Z,12.00
2022-10-22T05:02:06.885Z,11.90
2022-10-22T05:04:36.267Z,11.80
2022-10-22T05:07:04.273Z,11.80
2022-10-22T05:09:32.279Z,11.70
2022-10-22T05:12:00.226Z,11.70
2022-10-22T05:14:28.202Z,11.60
2022-10-22T05:16:56.166Z,11.70
2022-10-22T05:19:26.681Z,11.70
2022-10-22T05:21:57.984Z,11.70
2022-10-22T05:24:26.167Z,11.80
2022-10-22T05:26:55.457Z,11.80
2022-10-22T05:29:24.554Z,12.00
2022-10-22T05:31:53.168Z,12.00
2022-10-22T05:34:21.279Z,12.00
2022-10-22T05:36:49.279Z,11.90
2022-10-22T05:39:18.662Z,12.00
2022-10-22T05:41:46.687Z,12.00
2022-10-22T05:44:14.714Z,12.00
2022-10-22T05:46:43.251Z,12.00
2022-10-22T05:49:15.370Z,12.00
2022-10-22T05:51:43.426Z,12.10
2022-10-22T05:54:19.778Z,12.10
2022-10-22T05:56:47.884Z,12.00
2022-10-22T05:59:15.875Z,12.00
2022-10-22T06:01:44.224Z,12.00
2022-10-22T06:04:14.017Z,11.90
2022-10-22T06:06:44.945Z,11.80
2022-10-22T06:09:18.306Z,11.80
2022-10-22T06:11:48.397Z,11.70
2022-10-22T06:14:17.227Z,11.70
2022-10-22T06:16:45.293Z,11.60
2022-10-22T06:19:14.848Z,11.60
2022-10-22T06:21:43.334Z,11.50
2022-10-22T06:24:12.222Z,11.50
2022-10-22T06:26:41.094Z,11.40
2022-10-22T06:29:11.343Z,11.30
2022-10-22T06:31:39.353Z,11.20
2022-10-22T06:34:08.841Z,11.20
2022-10-22T06:36:36.984Z,11.20
2022-10-22T06:39:05.845Z,11.10
2022-10-22T06:41:33.985Z,10.90
2022-10-22T06:44:01.968Z,10.90
2022-10-22T06:46:31.778Z,10.90
2022-10-22T06:49:02.346Z,11.00
2022-10-22T06:51:30.400Z,11.00
2022-10-22T06:53:59.745Z,10.90
2022-10-22T06:56:29.778Z,10.80
2022-10-22T06:58:59.141Z,10.80
2022-10-22T07:01:29.088Z,10.80
2022-10-22T07:03:58.639Z,10.90
2022-10-22T07:06:27.803Z,10.90
2022-10-22T07:08:57.288Z,11.00
2022-10-22T07:11:27.611Z,11.00
2022-10-22T07:13:57.021Z,11.20
2022-10-22T07:16:29.605Z,11.30
2022-10-22T07:19:02.026Z,11.40
2022-10-22T07:21:30.664Z,11.50
2022-10-22T07:23:59.003Z,11.60
2022-10-22T07:29:36.226Z,11.70
2022-10-22T07:32:04.574Z,11.80
2022-10-22T07:34:33.961Z,11.90
2022-10-22T07:37:01.953Z,12.00
2022-10-22T07:39:30.164Z,12.00
2022-10-22T07:41:58.167Z,12.10
2022-10-22T07:44:26.357Z,12.20
2022-10-22T07:46:54.343Z,12.20
2022-10-22T07:49:22.310Z,12.30
2022-10-22T07:51:51.680Z,12.40
2022-10-22T07:54:19.838Z,12.40
2022-10-22T07:56:47.903Z,12.40
2022-10-22T07:59:15.899Z,12.50
2022-10-22T08:01:43.959Z,12.50
2022-10-22T08:04:12.439Z,12.50
2022-10-22T08:06:42.526Z,12.60
2022-10-22T08:09:15.212Z,12.70
2022-10-22T08:11:43.359Z,12.70
2022-10-22T08:14:11.419Z,12.80
2022-10-22T08:16:40.555Z,13.00
2022-10-22T08:19:08.582Z,13.10
2022-10-22T08:21:36.766Z,13.20
2022-10-22T08:24:05.085Z,13.20
2022-10-22T08:26:34.483Z,13.30
2022-10-22T08:29:02.487Z,13.30
2022-10-22T08:31:30.564Z,13.40
2022-10-22T08:33:58.617Z,13.40
2022-10-22T08:36:26.673Z,13.50
2022-10-22T08:38:54.766Z,13.60
2022-10-22T08:41:24.670Z,13.70
2022-10-22T08:44:21.383Z,13.80
2022-10-22T08:47:24.941Z,13.90
2022-10-22T08:49:56.930Z,13.90
2022-10-22T08:52:25.472Z,13.90
2022-10-22T08:54:55.707Z,14.00
2022-10-22T08:57:41.034Z,14.10
2022-10-22T09:00:16.638Z,14.10
2022-10-22T09:03:00.445Z,14.20
2022-10-22T09:05:41.144Z,14.30
2022-10-22T09:08:12.504Z,14.40
2022-10-22T09:10:46.489Z,14.40
2022-10-22T09:13:19.098Z,14.50
2022-10-22T09:15:52.131Z,14.50
2022-10-22T09:18:31.768Z,14.70
2022-10-22T09:21:04.966Z,14.80
2022-10-22T09:23:39.365Z,14.80
2022-10-22T09:26:14.595Z,14.80
2022-10-22T09:28:43.082Z,14.90
2022-10-22T09:31:15.250Z,14.90
2022-10-22T09:33:44.805Z,14.90
2022-10-22T09:36:16.568Z,15.10
2022-10-22T09:38:48.108Z,15.10
2022-10-22T09:41:17.716Z,15.30
2022-10-22T09:43:48.207Z,15.30
2022-10-22T09:46:20.640Z,15.30
2022-10-22T09:48:51.560Z,15.40
2022-10-22T09:51:21.173Z,15.40
2022-10-22T09:53:57.353Z,15.40
2022-10-22T09:56:27.846Z,15.40
2022-10-22T09:58:58.556Z,15.50
2022-10-22T10:01:30.261Z,15.60
2022-10-22T10:04:09.309Z,15.70
2022-10-22T10:06:40.318Z,15.80
2022-10-22T10:09:16.701Z,15.80
2022-10-22T10:11:49.879Z,15.90
2022-10-22T10:14:22.698Z,15.90
2022-10-22T10:16:59.124Z,16.00
2022-10-22T10:19:37.320Z,16.10
2022-10-22T10:22:15.215Z,16.20
2022-10-22T10:24:57.584Z,16.50
2022-10-22T10:27:32.497Z,16.60
2022-10-22T10:30:06.434Z,16.80
2022-10-22T10:33:06.396Z,17.00
2022-10-22T10:35:47.474Z,17.10
2022-10-22T10:38:28.743Z,17.10
2022-10-22T10:41:08.795Z,17.20
2022-10-22T10:43:49.770Z,17.30
2022-10-22T10:46:25.579Z,17.40
2022-10-22T10:49:00.223Z,17.30
2022-10-22T10:51:45.455Z,17.30
2022-10-22T10:54:23.094Z,17.40
2022-10-22T10:56:55.552Z,17.50
2022-10-22T10:59:35.712Z,17.70
2022-10-22T11:02:23.012Z,17.60
2022-10-22T11:05:23.792Z,17.80
2022-10-22T11:07:57.777Z,17.80
2022-10-22T11:10:30.786Z,17.90
2022-10-22T11:13:06.564Z,18.00
2022-10-22T11:15:37.867Z,18.00
2022-10-22T11:18:16.912Z,18.10
2022-10-22T11:20:53.570Z,18.30
2022-10-22T11:23:29.130Z,18.40
2022-10-22T11:25:57.197Z,18.50
2022-10-22T11:28:30.165Z,18.40
2022-10-22T11:31:03.786Z,18.40
2022-10-22T11:33:39.173Z,18.50
2022-10-22T11:36:10.270Z,18.40
2022-10-22T11:38:38.827Z,18.20
2022-10-22T11:41:10.646Z,18.00
2022-10-22T11:43:58.269Z,18.00
2022-10-22T11:46:36.501Z,18.10
2022-10-22T11:49:17.689Z,18.20
2022-10-22T11:51:47.934Z,18.30
2022-10-22T11:54:42.688Z,18.40
2022-10-22T11:57:24.205Z,18.40
2022-10-22T11:59:55.184Z,18.50
2022-10-22T12:02:45.960Z,18.60
2022-10-22T12:05:42.831Z,18.80
2022-10-22T12:08:30.984Z,18.80
2022-10-22T12:11:05.002Z,19.00
2022-10-22T12:13:50.847Z,19.20
2022-10-22T12:16:32.096Z,19.40
2022-10-22T12:19:14.689Z,19.50
2022-10-22T12:21:48.438Z,19.50
2022-10-22T12:24:21.238Z,19.60
2022-10-22T12:26:52.434Z,19.80
2022-10-22T12:29:23.699Z,20.00
2022-10-22T12:31:51.933Z,20.30
2022-10-22T12:34:23.287Z,20.60
2022-10-22T12:36:52.809Z,20.90
2022-10-22T12:39:26.258Z,21.30
2022-10-22T12:41:55.915Z,21.60
2022-10-22T12:44:23.902Z,21.60
2022-10-22T12:46:56.021Z,21.50
2022-10-22T12:49:29.073Z,21.60
2022-10-22T12:52:01.289Z,21.70
2022-10-22T12:54:33.028Z,21.80
2022-10-22T12:57:01.683Z,21.60
2022-10-22T12:59:34.208Z,21.60
2022-10-22T13:02:02.593Z,21.60
2022-10-22T13:04:35.636Z,22.10
2022-10-22T13:07:22.355Z,22.40
2022-10-22T13:10:01.016Z,22.40
2022-10-22T13:12:36.170Z,22.40
2022-10-22T13:15:20.332Z,21.70
2022-10-22T13:17:49.356Z,21.80
2022-10-22T13:20:21.248Z,21.30
2022-10-22T13:23:00.085Z,20.70
2022-10-22T13:25:31.450Z,20.60
2022-10-22T13:28:01.731Z,20.40
2022-10-22T13:30:32.874Z,20.30
2022-10-22T13:33:03.028Z,20.10
2022-10-22T13:35:33.647Z,20.10
2022-10-22T13:38:01.855Z,19.90
2022-10-22T13:40:31.366Z,20.00
2022-10-22T13:42:59.427Z,20.00
2022-10-22T13:45:27.869Z,19.90
2022-10-22T13:47:57.040Z,19.90
2022-10-22T13:50:25.108Z,19.80
2022-10-22T13:52:56.141Z,19.70
2022-10-22T13:55:25.952Z,19.50
2022-10-22T13:57:57.443Z,19.60
2022-10-22T14:00:26.387Z,19.60
2022-10-22T14:02:57.868Z,19.50
2022-10-22T14:05:25.924Z,19.50
2022-10-22T14:07:54.353Z,19.30
2022-10-22T14:10:24.846Z,19.20
2022-10-22T14:12:55.040Z,19.20
2022-10-22T14:15:25.225Z,19.10
2022-10-22T14:17:57.076Z,19.20
2022-10-22T14:20:28.860Z,19.30
2022-10-22T14:22:57.455Z,19.40
2022-10-22T14:25:26.827Z,19.30
2022-10-22T14:27:56.522Z,19.10
2022-10-22T14:30:26.227Z,19.10
2022-10-22T14:32:54.275Z,19.10
2022-10-22T14:35:23.434Z,19.10
2022-10-22T14:37:51.904Z,19.10
2022-10-22T14:40:21.283Z,19.10
2022-10-22T14:42:50.185Z,19.10
2022-10-22T14:45:23.262Z,19.10
2022-10-22T14:47:51.907Z,19.10
2022-10-22T14:50:20.348Z,19.00
2022-10-22T14:52:48.513Z,18.90
2022-10-22T14:55:18.054Z,18.90
2022-10-22T14:57:46.624Z,18.80
2022-10-22T15:00:16.909Z,18.70
2022-10-22T15:02:47.020Z,18.70
2022-10-22T15:05:15.835Z,18.60
2022-10-22T15:07:44.548Z,18.50
2022-10-22T15:10:12.848Z,18.40
2022-10-22T15:12:41.055Z,18.40
2022-10-22T15:15:09.739Z,18.30
2022-10-22T15:17:37.753Z,18.20
2022-10-22T15:20:08.534Z,18.10
2022-10-22T15:22:36.534Z,18.10
2022-10-22T15:25:07.875Z,18.10
2022-10-22T15:27:36.402Z,18.00
2022-10-22T15:30:05.291Z,18.00
2022-10-22T15:32:34.032Z,17.90
2022-10-22T15:35:02.407Z,17.80
2022-10-22T15:37:32.119Z,17.90
2022-10-22T15:40:00.584Z,17.90
2022-10-22T15:42:28.652Z,17.80
2022-10-22T15:44:59.683Z,17.70
2022-10-22T15:47:29.419Z,17.60
2022-10-22T15:49:58.089Z,17.60
2022-10-22T15:52:26.177Z,17.40
2022-10-22T15:54:55.749Z,17.40
2022-10-22T15:57:23.724Z,17.20
2022-10-22T15:59:52.034Z,17.00
2022-10-22T16:02:20.141Z,16.90
2022-10-22T16:04:48.090Z,16.80
2022-10-22T16:07:17.313Z,16.70
2022-10-22T16:09:46.880Z,16.60
2022-10-22T16:12:17.322Z,16.50
2022-10-22T16:14:45.409Z,16.30
2022-10-22T16:17:13.862Z,16.10
2022-10-22T16:19:41.815Z,15.90
2022-10-22T16:22:13.651Z,15.70
2022-10-22T16:24:41.611Z,15.50
2022-10-22T16:27:09.875Z,15.30
2022-10-22T16:29:40.356Z,15.10
2022-10-22T16:32:08.434Z,15.00
2022-10-22T16:34:36.445Z,14.80
2022-10-22T16:37:09.953Z,14.70
2022-10-22T16:39:38.398Z,14.50
2022-10-22T16:42:06.631Z,14.40
2022-10-22T16:44:34.613Z,14.40
2022-10-22T16:47:03.969Z,14.30
2022-10-22T16:49:31.955Z,14.30
2022-10-22T16:51:59.970Z,14.20
2022-10-22T16:54:28.043Z,14.10
2022-10-22T16:56:56.010Z,14.00
2022-10-22T16:59:24.011Z,14.00
2022-10-22T17:01:52.130Z,13.90
2022-10-22T17:04:22.390Z,13.80
2022-10-22T17:06:50.357Z,13.70
2022-10-22T17:09:18.381Z,13.60
2022-10-22T17:11:47.311Z,13.50
2022-10-22T17:14:15.285Z,13.50
2022-10-22T17:16:43.288Z,13.40
2022-10-22T17:19:15.607Z,13.40
2022-10-22T17:21:45.035Z,13.50
2022-10-22T17:24:13.101Z,13.40
2022-10-22T17:26:41.149Z,13.40
2022-10-22T17:29:09.155Z,13.40
2022-10-22T17:31:37.870Z,13.30
2022-10-22T17:34:07.584Z,13.30
2022-10-22T17:36:36.404Z,13.20
2022-10-22T17:39:08.276Z,13.10
2022-10-22T17:41:38.108Z,13.10
2022-10-22T17:44:08.759Z,13.00
2022-10-22T17:46:36.903Z,12.90
2022-10-22T17:49:09.215Z,12.80
2022-10-22T17:51:37.552Z,12.80
2022-10-22T17:54:09.074Z,12.80
2022-10-22T17:56:40.055Z,12.70
2022-10-22T17:59:08.461Z,12.60
2022-10-22T18:01:43.232Z,12.50
2022-10-22T18:04:15.281Z,12.40
2022-10-22T18:06:43.310Z,12.40
2022-10-22T18:09:17.366Z,12.40
2022-10-22T18:11:47.484Z,12.30
2022-10-22T18:14:15.543Z,12.30
2022-10-22T18:16:43.529Z,12.30
2022-10-22T18:19:13.393Z,12.30
2022-10-22T18:21:41.348Z,12.20
2022-10-22T18:24:11.824Z,12.20
2022-10-22T18:26:39.775Z,12.20
2022-10-22T18:29:07.848Z,12.20
2022-10-22T18:31:35.973Z,12.10
2022-10-22T18:34:04.034Z,12.10
2022-10-22T18:36:32.014Z,12.10
2022-10-22T18:39:01.759Z,12.10
2022-10-22T18:41:33.074Z,12.10
2022-10-22T18:44:02.543Z,12.10
2022-10-22T18:46:32.169Z,12.10
2022-10-22T18:49:00.278Z,12.10
2022-10-22T18:51:31.553Z,12.00
2022-10-22T18:54:05.884Z,12.00
2022-10-22T18:56:41.522Z,12.00
2022-10-22T18:59:14.999Z,12.00
2022-10-22T19:01:42.953Z,11.90
2022-10-22T19:04:10.894Z,11.90
2022-10-22T19:06:41.780Z,11.80
2022-10-22T19:09:13.591Z,11.80
2022-10-22T19:11:43.714Z,11.80
2022-10-22T19:14:11.752Z,11.70
2022-10-22T19:16:39.746Z,11.70
2022-10-22T19:19:09.211Z,11.70
2022-10-22T19:21:38.312Z,11.70
2022-10-22T19:24:07.511Z,11.60
2022-10-22T19:26:35.585Z,11.60
2022-10-22T19:29:05.303Z,11.60
2022-10-22T19:31:33.375Z,11.50
2022-10-22T19:34:02.787Z,11.50
2022-10-22T19:36:32.447Z,11.50
2022-10-22T19:39:01.665Z,11.40
2022-10-22T19:41:31.649Z,11.40
2022-10-22T19:44:00.899Z,11.30
2022-10-22T19:46:32.432Z,11.30
2022-10-22T19:49:00.774Z,11.20
2022-10-22T19:51:30.721Z,11.10
2022-10-22T19:54:00.455Z,11.00
2022-10-22T19:56:29.557Z,11.00
2022-10-22T19:58:57.791Z,10.90
2022-10-22T20:01:26.112Z,10.90
2022-10-22T20:03:55.543Z,10.90
2022-10-22T20:06:23.497Z,10.80
2022-10-22T20:08:55.166Z,10.80
2022-10-22T20:11:26.456Z,10.80
2022-10-22T20:13:54.581Z,10.80
2022-10-22T20:16:24.995Z,10.80
2022-10-22T20:18:53.264Z,10.80
2022-10-22T20:21:22.848Z,10.80
2022-10-22T20:23:54.554Z,10.70
2022-10-22T20:26:23.792Z,10.70
2022-10-22T20:28:51.882Z,10.70
2022-10-22T20:31:21.223Z,10.60
2022-10-22T20:33:50.684Z,10.60
2022-10-22T20:36:20.679Z,10.60
2022-10-22T20:38:50.505Z,10.60
2022-10-22T20:41:20.298Z,10.60
2022-10-22T20:43:49.809Z,10.60
2022-10-22T20:46:19.702Z,10.60
2022-10-22T20:48:47.982Z,10.50
2022-10-22T20:51:15.953Z,10.60
2022-10-22T20:53:43.962Z,10.60
2022-10-22T20:56:14.525Z,10.60
2022-10-22T20:58:47.687Z,10.60
2022-10-22T21:01:21.369Z,10.70
2022-10-22T21:03:49.851Z,10.70
2022-10-22T21:06:20.862Z,10.80
2022-10-22T21:08:48.880Z,10.80
2022-10-22T21:11:18.414Z,10.80
2022-10-22T21:13:46.503Z,10.80
2022-10-22T21:16:16.283Z,10.80
2022-10-22T21:18:44.392Z,10.90
2022-10-22T21:21:12.926Z,11.00
2022-10-22T21:23:40.999Z,11.10
2022-10-22T21:26:09.143Z,11.10
2022-10-22T21:28:39.023Z,11.20
2022-10-22T21:31:09.791Z,11.20
2022-10-22T21:33:38.772Z,11.30
2022-10-22T21:36:08.898Z,11.30
2022-10-22T21:38:38.018Z,11.30
2022-10-22T21:41:06.671Z,11.40
2022-10-22T21:43:34.693Z,11.40
2022-10-22T21:46:08.621Z,11.40
2022-10-22T21:48:37.350Z,11.40
2022-10-22T21:51:09.822Z,11.40
2022-10-22T21:53:38.082Z,11.30
2022-10-22T21:56:06.890Z,11.40
2022-10-22T21:58:35.544Z,11.40
2022-10-22T22:01:03.661Z,11.40
2022-10-22T22:03:33.268Z,11.50
2022-10-22T22:06:02.054Z,11.50
2022-10-22T22:08:30.190Z,11.50
2022-10-22T22:11:02.427Z,11.60
2022-10-22T22:13:30.542Z,11.60
2022-10-22T22:16:01.574Z,11.60
2022-10-22T22:18:30.622Z,11.60
2022-10-22T22:21:00.679Z,11.70
2022-10-22T22:23:28.661Z,11.70
2022-10-22T22:25:59.577Z,11.70
2022-10-22T22:28:27.681Z,11.70
2022-10-22T22:30:55.620Z,11.70
2022-10-22T22:33:23.876Z,11.80
2022-10-22T22:35:52.119Z,11.70
2022-10-22T22:38:21.753Z,11.70
2022-10-22T22:40:49.690Z,11.70
2022-10-22T22:43:17.654Z,11.70
2022-10-22T22:45:45.616Z,11.70
2022-10-22T22:48:13.646Z,11.70
2022-10-22T22:50:41.581Z,11.70
2022-10-22T22:53:09.487Z,11.70
2022-10-22T22:55:38.781Z,11.80
2022-10-22T22:58:06.701Z,11.80
2022-10-22T23:00:34.927Z,11.80
2022-10-22T23:03:02.873Z,11.70
2022-10-22T23:05:30.894Z,11.70
2022-10-22T23:07:58.833Z,11.70
2022-10-22T23:10:26.831Z,11.60
2022-10-22T23:12:56.153Z,11.60
2022-10-22T23:15:24.081Z,11.70
2022-10-22T23:17:52.003Z,11.70
2022-10-22T23:20:19.969Z,11.70
2022-10-22T23:22:47.915Z,11.70
2022-10-22T23:25:15.988Z,11.80
2022-10-22T23:27:44.271Z,11.90
2022-10-22T23:30:14.698Z,11.90
2022-10-22T23:32:42.646Z,11.90
2022-10-22T23:35:10.798Z,11.90
2022-10-22T23:37:38.899Z,11.90
2022-10-22T23:40:08.279Z,12.00
2022-10-22T23:42:36.377Z,12.00
2022-10-22T23:45:04.594Z,11.90
2022-10-22T23:47:33.855Z,11.90
2022-10-22T23:50:01.772Z,11.90
2022-10-22T23:52:29.743Z,11.90
2022-10-22T23:54:57.672Z,11.80
2022-10-22T23:57:25.639Z,11.90
2022-10-22T23:59:54.302Z,11.90
